createdAt,value
2023-03-03T00:01:59.398Z,73.20
2023-03-03T00:04:26.145Z,73.00
2023-03-03T00:11:58.842Z,73.70
2023-03-03T00:14:33.486Z,72.40
2023-03-03T00:17:33.218Z,73.60
2023-03-03T00:20:22.346Z,72.70
2023-03-03T00:22:49.117Z,72.80
2023-03-03T00:25:24.555Z,74.10
2023-03-03T00:27:51.342Z,74.80
2023-03-03T00:30:32.398Z,72.80
2023-03-03T00:32:59.223Z,73.30
2023-03-03T00:35:38.814Z,73.20
2023-03-03T00:38:18.319Z,73.40
2023-03-03T00:40:46.983Z,73.40
2023-03-03T00:43:28.988Z,73.40
2023-03-03T00:45:57.374Z,73.30
2023-03-03T00:48:40.623Z,73.60
2023-03-03T00:51:34.484Z,73.70
2023-03-03T00:54:01.256Z,74.30
2023-03-03T00:56:28.065Z,73.60
2023-03-03T00:58:54.842Z,73.60
2023-03-03T01:01:21.721Z,73.50
2023-03-03T01:03:48.499Z,73.40
2023-03-03T01:06:15.390Z,73.40
2023-03-03T01:08:42.274Z,73.40
2023-03-03T01:11:25.579Z,73.30
2023-03-03T01:13:53.784Z,73.40
2023-03-03T01:16:21.337Z,73.60
2023-03-03T01:18:48.215Z,73.60
2023-03-03T01:21:15.033Z,73.60
2023-03-03T01:23:41.804Z,73.70
2023-03-03T01:26:08.671Z,74.10
2023-03-03T01:28:35.432Z,73.30
2023-03-03T01:31:05.135Z,73.50
2023-03-03T01:33:34.173Z,73.40
2023-03-03T01:36:01.207Z,73.50
2023-03-03T01:38:28.416Z,74.10
2023-03-03T01:40:58.150Z,73.50
2023-03-03T01:43:29.192Z,73.40
2023-03-03T01:45:58.879Z,73.60
2023-03-03T01:48:38.822Z,73.50
2023-03-03T01:51:27.512Z,73.40
2023-03-03T01:54:02.390Z,73.70
2023-03-03T01:56:30.750Z,73.50
2023-03-03T01:59:27.719Z,73.60
2023-03-03T02:01:54.588Z,74.00
2023-03-03T02:04:22.031Z,73.30
2023-03-03T02:07:01.869Z,73.60
2023-03-03T02:09:59.399Z,73.70
2023-03-03T02:12:35.717Z,74.00
2023-03-03T02:15:08.933Z,73.70
2023-03-03T02:17:35.965Z,73.70
2023-03-03T02:20:17.574Z,73.50
2023-03-03T02:23:26.488Z,74.10
2023-03-03T02:25:58.827Z,73.80
2023-03-03T02:28:32.404Z,73.70
2023-03-03T02:31:01.268Z,73.70
2023-03-03T02:33:29.584Z,73.90
2023-03-03T02:35:56.786Z,74.90
2023-03-03T02:39:02.878Z,74.60
2023-03-03T02:41:40.786Z,74.80
2023-03-03T02:44:09.473Z,73.90
2023-03-03T02:46:43.237Z,73.50
2023-03-03T02:49:14.571Z,74.50
2023-03-03T02:51:42.191Z,73.80
2023-03-03T02:54:11.378Z,73.20
2023-03-03T02:59:06.407Z,73.00
2023-03-03T03:01:37.142Z,73.60
2023-03-03T03:04:15.199Z,73.70
2023-03-03T03:06:42.613Z,73.90
2023-03-03T03:09:10.860Z,73.70
2023-03-03T03:11:38.293Z,73.70
2023-03-03T03:14:08.470Z,75.40
2023-03-03T03:16:36.011Z,73.90
2023-03-03T03:19:04.702Z,75.10
2023-03-03T03:21:31.758Z,74.60
2023-03-03T03:23:58.812Z,73.60
2023-03-03T03:26:26.089Z,74.00
2023-03-03T03:28:53.824Z,74.50
2023-03-03T03:31:21.864Z,74.00
2023-03-03T03:33:49.047Z,74.00
2023-03-03T03:36:16.565Z,74.00
2023-03-03T03:38:43.324Z,74.60
2023-03-03T03:41:11.564Z,73.90
2023-03-03T03:43:38.586Z,73.90
2023-03-03T03:46:05.993Z,74.20
2023-03-03T03:48:33.273Z,75.00
2023-03-03T03:51:00.460Z,74.90
2023-03-03T03:53:27.272Z,74.50
2023-03-03T03:55:54.098Z,74.50
2023-03-03T04:00:48.516Z,75.50
2023-03-03T04:03:15.866Z,74.30
2023-03-03T04:05:43.415Z,74.90
2023-03-03T04:08:11.135Z,74.50
2023-03-03T04:10:37.953Z,75.10
2023-03-03T04:13:04.993Z,75.20
2023-03-03T04:15:31.758Z,75.50
2023-03-03T04:17:58.522Z,75.50
2023-03-03T04:20:25.358Z,75.40
2023-03-03T04:22:52.074Z,76.90
2023-03-03T04:25:19.030Z,75.50
2023-03-03T04:27:46.258Z,76.40
2023-03-03T04:30:15.930Z,75.50
2023-03-03T04:32:43.441Z,75.40
2023-03-03T04:35:11.412Z,75.50
2023-03-03T04:37:38.949Z,75.90
2023-03-03T04:40:08.510Z,76.20
2023-03-03T04:42:35.429Z,75.50
2023-03-03T04:45:02.655Z,75.70
2023-03-03T04:47:29.371Z,75.50
2023-03-03T04:49:56.672Z,76.00
2023-03-03T04:52:23.467Z,75.60
2023-03-03T04:54:50.218Z,75.00
2023-03-03T04:57:16.975Z,76.50
2023-03-03T04:59:43.887Z,75.50
2023-03-03T05:02:10.874Z,75.40
2023-03-03T05:04:37.659Z,75.60
2023-03-03T05:07:04.877Z,75.50
2023-03-03T05:09:31.811Z,75.50
2023-03-03T05:11:58.560Z,75.00
2023-03-03T05:14:26.287Z,75.40
2023-03-03T05:16:53.701Z,75.70
2023-03-03T05:19:20.609Z,75.50
2023-03-03T05:21:47.311Z,75.40
2023-03-03T05:24:14.559Z,76.20
2023-03-03T05:26:41.728Z,75.90
2023-03-03T05:29:09.363Z,75.90
2023-03-03T05:31:36.594Z,76.30
2023-03-03T05:34:03.518Z,78.10
2023-03-03T05:36:30.632Z,76.60
2023-03-03T05:38:57.376Z,78.20
2023-03-03T05:41:24.221Z,76.30
2023-03-03T05:43:51.116Z,77.00
2023-03-03T05:46:18.099Z,76.30
2023-03-03T05:48:45.318Z,76.20
2023-03-03T05:51:12.208Z,76.40
2023-03-03T05:53:39.133Z,76.40
2023-03-03T05:56:07.139Z,76.50
2023-03-03T05:58:34.123Z,77.70
2023-03-03T06:01:00.840Z,76.90
2023-03-03T06:03:27.670Z,76.70
2023-03-03T06:05:54.399Z,78.00
2023-03-03T06:08:21.138Z,77.00
2023-03-03T06:10:47.942Z,76.80
2023-03-03T06:13:14.803Z,76.90
2023-03-03T06:15:41.602Z,76.80
2023-03-03T06:18:08.481Z,76.30
2023-03-03T06:20:35.861Z,77.00
2023-03-03T06:23:02.707Z,77.30
2023-03-03T06:25:29.628Z,76.80
2023-03-03T06:27:56.591Z,76.70
2023-03-03T06:30:23.363Z,77.00
2023-03-03T06:32:50.103Z,76.50
2023-03-03T06:35:18.296Z,76.60
2023-03-03T06:37:45.190Z,76.70
2023-03-03T06:40:12.844Z,77.20
2023-03-03T06:42:39.550Z,76.80
2023-03-03T06:45:06.809Z,77.00
2023-03-03T06:47:33.992Z,77.10
2023-03-03T06:50:00.819Z,78.10
2023-03-03T06:52:28.156Z,77.30
2023-03-03T06:54:58.741Z,77.20
2023-03-03T06:57:34.218Z,76.90
2023-03-03T07:00:24.944Z,76.20
2023-03-03T07:03:17.857Z,76.30
2023-03-03T07:05:45.644Z,77.30
2023-03-03T07:08:20.513Z,76.40
2023-03-03T07:10:48.973Z,76.60
2023-03-03T07:13:24.387Z,76.40
2023-03-03T07:15:54.971Z,78.20
2023-03-03T07:18:51.163Z,76.90
2023-03-03T07:21:21.493Z,79.50
2023-03-03T07:23:53.719Z,77.40
2023-03-03T07:26:30.817Z,77.20
2023-03-03T07:29:24.034Z,77.40
2023-03-03T07:31:52.018Z,77.10
2023-03-03T07:34:30.333Z,76.90
2023-03-03T07:37:10.206Z,77.30
2023-03-03T07:39:40.619Z,77.70
2023-03-03T07:42:24.335Z,77.10
2023-03-03T07:44:54.008Z,78.70
2023-03-03T07:47:36.301Z,77.40
2023-03-03T07:50:21.494Z,78.70
2023-03-03T07:52:58.745Z,78.40
2023-03-03T07:55:39.029Z,77.40
2023-03-03T07:58:35.841Z,78.30
2023-03-03T08:01:39.817Z,78.30
2023-03-03T08:04:24.140Z,78.40
2023-03-03T08:07:00.828Z,77.90
2023-03-03T08:09:53.723Z,77.30
2023-03-03T08:12:35.055Z,78.20
2023-03-03T08:15:28.060Z,78.00
2023-03-03T08:17:56.927Z,78.20
2023-03-03T08:20:29.633Z,78.00
2023-03-03T08:22:56.382Z,77.90
2023-03-03T08:25:23.599Z,77.50
2023-03-03T08:27:50.471Z,78.00
2023-03-03T08:30:17.452Z,80.20
2023-03-03T08:32:44.261Z,78.40
2023-03-03T08:35:11.112Z,78.30
2023-03-03T08:37:37.879Z,80.10
2023-03-03T08:40:05.171Z,78.70
2023-03-03T08:42:31.964Z,78.20
2023-03-03T08:44:58.722Z,78.20
2023-03-03T08:47:26.066Z,78.00
2023-03-03T08:49:54.403Z,78.10
2023-03-03T08:52:21.372Z,77.80
2023-03-03T08:54:48.153Z,78.50
2023-03-03T08:57:15.137Z,77.80
2023-03-03T08:59:41.838Z,77.90
2023-03-03T09:02:08.876Z,77.90
2023-03-03T09:04:35.823Z,77.90
2023-03-03T09:07:02.647Z,77.70
2023-03-03T09:09:29.385Z,77.40
2023-03-03T09:12:07.500Z,77.10
2023-03-03T09:14:34.217Z,77.20
2023-03-03T09:17:03.366Z,77.70
2023-03-03T09:19:37.490Z,76.80
2023-03-03T09:22:24.468Z,76.80
2023-03-03T09:24:56.928Z,77.20
2023-03-03T09:27:30.568Z,76.50
2023-03-03T09:30:29.889Z,76.40
2023-03-03T09:32:58.120Z,76.10
2023-03-03T09:35:41.173Z,75.70
2023-03-03T09:38:29.651Z,74.60
2023-03-03T09:41:41.576Z,74.80
2023-03-03T09:44:37.229Z,74.30
2023-03-03T09:47:27.964Z,74.10
2023-03-03T09:50:15.824Z,74.10
2023-03-03T09:53:05.712Z,73.50
2023-03-03T09:55:43.833Z,74.50
2023-03-03T09:58:58.783Z,74.00
2023-03-03T10:02:23.859Z,73.10
2023-03-03T10:05:25.809Z,73.60
2023-03-03T10:08:09.972Z,73.60
2023-03-03T10:11:00.026Z,73.00
2023-03-03T10:13:44.561Z,73.40
2023-03-03T10:17:04.009Z,73.60
2023-03-03T10:19:40.516Z,73.10
2023-03-03T10:22:27.730Z,72.20
2023-03-03T10:25:27.989Z,71.80
2023-03-03T10:28:01.977Z,72.30
2023-03-03T10:30:58.565Z,72.00
2023-03-03T10:33:42.697Z,71.90
2023-03-03T10:36:43.825Z,71.70
2023-03-03T10:39:45.335Z,71.10
2023-03-03T10:42:28.826Z,71.20
2023-03-03T10:45:45.930Z,72.20
2023-03-03T10:49:08.325Z,71.00
2023-03-03T10:52:13.171Z,71.60
2023-03-03T10:55:23.292Z,71.50
2023-03-03T10:58:15.084Z,71.30
2023-03-03T11:01:03.891Z,71.30
2023-03-03T11:03:41.823Z,70.50
2023-03-03T11:06:38.328Z,71.10
2023-03-03T11:09:43.624Z,71.10
2023-03-03T11:12:21.437Z,70.50
2023-03-03T11:15:24.328Z,70.70
2023-03-03T11:18:26.414Z,71.50
2023-03-03T11:21:29.706Z,71.00
2023-03-03T11:24:26.120Z,71.60
2023-03-03T11:27:06.839Z,71.00
2023-03-03T11:30:20.003Z,71.10
2023-03-03T11:33:06.320Z,72.00
2023-03-03T11:36:03.702Z,71.60
2023-03-03T11:38:50.465Z,71.60
2023-03-03T11:41:29.288Z,70.60
2023-03-03T11:44:17.120Z,71.20
2023-03-03T11:47:00.266Z,71.10
2023-03-03T11:49:51.902Z,71.20
2023-03-03T11:52:31.803Z,71.20
2023-03-03T11:55:32.024Z,70.50
2023-03-03T11:58:27.623Z,71.20
2023-03-03T12:01:23.132Z,70.80
2023-03-03T12:04:09.712Z,69.60
2023-03-03T12:07:18.702Z,70.10
2023-03-03T12:10:07.008Z,68.60
2023-03-03T12:12:43.707Z,69.20
2023-03-03T12:15:28.692Z,69.10
2023-03-03T12:18:12.626Z,69.10
2023-03-03T12:21:16.023Z,69.30
2023-03-03T12:24:00.181Z,69.40
2023-03-03T12:26:47.930Z,69.50
2023-03-03T12:29:54.052Z,69.60
2023-03-03T12:33:11.106Z,69.70
2023-03-03T12:36:14.482Z,70.40
2023-03-03T12:39:11.992Z,69.80
2023-03-03T12:42:07.152Z,69.80
2023-03-03T12:45:11.116Z,68.80
2023-03-03T12:47:50.768Z,69.60
2023-03-03T12:50:36.442Z,69.50
2023-03-03T12:53:24.382Z,69.30
2023-03-03T12:59:03.228Z,68.60
2023-03-03T13:01:48.904Z,68.30
2023-03-03T13:04:42.584Z,67.70
2023-03-03T13:07:46.130Z,68.30
2023-03-03T13:10:35.288Z,68.20
2023-03-03T13:13:18.583Z,67.90
2023-03-03T13:16:06.354Z,68.00
2023-03-03T13:18:51.488Z,68.10
2023-03-03T13:21:36.798Z,68.30
2023-03-03T13:24:33.413Z,68.50
2023-03-03T13:27:15.272Z,68.50
2023-03-03T13:30:00.500Z,68.40
2023-03-03T13:32:47.222Z,67.70
2023-03-03T13:35:32.795Z,68.30
2023-03-03T13:38:03.994Z,68.40
2023-03-03T13:40:50.343Z,68.20
2023-03-03T13:43:29.645Z,68.80
2023-03-03T13:46:18.051Z,68.90
2023-03-03T13:49:18.613Z,69.10
2023-03-03T13:52:08.838Z,69.40
2023-03-03T13:55:08.137Z,69.50
2023-03-03T13:57:53.640Z,69.20
2023-03-03T14:00:44.150Z,69.90
2023-03-03T14:03:45.205Z,70.00
2023-03-03T14:06:29.691Z,69.20
2023-03-03T14:09:31.293Z,69.80
2023-03-03T14:12:19.461Z,69.60
2023-03-03T14:14:57.929Z,69.20
2023-03-03T14:18:09.607Z,68.70
2023-03-03T14:20:47.083Z,68.50
2023-03-03T14:23:23.109Z,68.40
2023-03-03T14:26:08.545Z,68.60
2023-03-03T14:28:48.432Z,68.70
2023-03-03T14:31:22.061Z,68.70
2023-03-03T14:34:27.281Z,68.60
2023-03-03T14:37:27.394Z,68.30
2023-03-03T14:40:09.379Z,68.30
2023-03-03T14:42:53.735Z,67.60
2023-03-03T14:45:32.737Z,67.80
2023-03-03T14:48:10.992Z,68.40
2023-03-03T14:50:41.590Z,68.60
2023-03-03T14:53:36.723Z,68.70
2023-03-03T14:56:34.547Z,70.40
2023-03-03T14:59:23.829Z,68.90
2023-03-03T15:02:29.617Z,68.80
2023-03-03T15:05:17.877Z,68.90
2023-03-03T15:07:56.746Z,68.90
2023-03-03T15:10:51.389Z,69.00
2023-03-03T15:13:20.891Z,68.90
2023-03-03T15:16:18.037Z,68.80
2023-03-03T15:20:06.658Z,68.60
2023-03-03T15:23:09.964Z,68.50
2023-03-03T15:26:10.784Z,68.40
2023-03-03T15:29:34.417Z,68.40
2023-03-03T15:32:06.591Z,68.50
2023-03-03T15:34:51.575Z,68.50
2023-03-03T15:37:32.993Z,68.50
2023-03-03T15:40:29.545Z,68.20
2023-03-03T15:43:25.132Z,68.30
2023-03-03T15:46:21.347Z,68.30
2023-03-03T15:49:21.305Z,68.30
2023-03-03T15:52:12.475Z,68.00
2023-03-03T15:55:07.279Z,68.10
2023-03-03T15:58:14.113Z,68.00
2023-03-03T16:01:00.569Z,67.90
2023-03-03T16:03:36.411Z,68.00
2023-03-03T16:06:30.197Z,68.80
2023-03-03T16:09:19.286Z,68.10
2023-03-03T16:12:25.272Z,68.30
2023-03-03T16:15:18.417Z,67.60
2023-03-03T16:18:10.741Z,67.60
2023-03-03T16:21:03.440Z,68.40
2023-03-03T16:23:51.824Z,67.70
2023-03-03T16:27:04.684Z,68.30
2023-03-03T16:29:37.543Z,68.30
2023-03-03T16:32:43.701Z,68.30
2023-03-03T16:35:24.931Z,68.30
2023-03-03T16:38:01.526Z,68.20
2023-03-03T16:41:14.331Z,68.20
2023-03-03T16:44:30.969Z,68.40
2023-03-03T16:47:18.278Z,68.40
2023-03-03T16:50:26.368Z,68.60
2023-03-03T16:53:45.269Z,68.60
2023-03-03T16:56:33.911Z,68.70
2023-03-03T16:59:33.848Z,68.70
2023-03-03T17:02:55.819Z,70.10
2023-03-03T17:05:41.563Z,68.30
2023-03-03T17:08:38.572Z,68.90
2023-03-03T17:11:37.615Z,68.90
2023-03-03T17:14:19.761Z,69.00
2023-03-03T17:17:01.058Z,69.00
2023-03-03T17:20:00.687Z,69.20
2023-03-03T17:22:47.683Z,69.50
2023-03-03T17:25:46.045Z,69.70
2023-03-03T17:28:32.210Z,69.80
2023-03-03T17:31:31.984Z,69.50
2023-03-03T17:34:24.084Z,69.60
2023-03-03T17:37:22.027Z,69.10
2023-03-03T17:40:38.291Z,69.80
2023-03-03T17:43:30.927Z,69.80
2023-03-03T17:46:04.537Z,69.40
2023-03-03T17:49:10.078Z,70.00
2023-03-03T17:51:59.660Z,70.10
2023-03-03T17:54:52.099Z,70.30
2023-03-03T17:58:00.851Z,70.70
2023-03-03T18:00:35.061Z,70.60
2023-03-03T18:03:41.272Z,70.60
2023-03-03T18:06:58.574Z,70.90
2023-03-03T18:09:37.991Z,70.90
2023-03-03T18:12:13.933Z,70.10
2023-03-03T18:15:06.783Z,70.60
2023-03-03T18:18:17.928Z,70.60
2023-03-03T18:21:01.955Z,70.80
2023-03-03T18:23:42.204Z,70.60
2023-03-03T18:26:35.312Z,70.60
2023-03-03T18:29:17.008Z,70.60
2023-03-03T18:32:20.072Z,70.40
2023-03-03T18:34:47.137Z,70.40
2023-03-03T18:37:39.885Z,70.10
2023-03-03T18:40:09.369Z,69.60
2023-03-03T18:42:44.258Z,70.10
2023-03-03T18:45:20.234Z,69.50
2023-03-03T18:48:13.844Z,70.10
2023-03-03T18:50:44.818Z,69.30
2023-03-03T18:53:28.031Z,70.00
2023-03-03T18:55:59.848Z,70.10
2023-03-03T18:58:26.638Z,70.40
2023-03-03T19:01:00.384Z,70.10
2023-03-03T19:03:54.511Z,70.10
2023-03-03T19:06:42.229Z,70.10
2023-03-03T19:09:17.685Z,70.10
2023-03-03T19:11:55.860Z,70.00
2023-03-03T19:14:29.585Z,70.10
2023-03-03T19:17:40.364Z,70.00
2023-03-03T19:20:18.490Z,70.00
2023-03-03T19:22:49.962Z,70.00
2023-03-03T19:25:28.218Z,69.80
2023-03-03T19:28:29.205Z,69.70
2023-03-03T19:31:49.513Z,69.80
2023-03-03T19:34:50.040Z,70.00
2023-03-03T19:37:48.410Z,70.10
2023-03-03T19:40:37.137Z,69.30
2023-03-03T19:43:52.080Z,70.00
2023-03-03T19:46:55.914Z,69.50
2023-03-03T19:50:05.337Z,70.00
2023-03-03T19:53:24.038Z,69.40
2023-03-03T19:56:20.897Z,70.10
2023-03-03T19:59:13.784Z,70.30
2023-03-03T20:01:55.994Z,70.80
2023-03-03T20:04:57.876Z,70.00
2023-03-03T20:07:44.468Z,69.20
2023-03-03T20:10:45.403Z,70.00
2023-03-03T20:13:41.319Z,70.00
2023-03-03T20:16:28.716Z,69.30
2023-03-03T20:19:17.548Z,69.80
2023-03-03T20:22:11.407Z,69.70
2023-03-03T20:24:55.868Z,69.70
2023-03-03T20:27:47.567Z,69.60
2023-03-03T20:30:25.086Z,69.60
2023-03-03T20:33:18.960Z,69.60
2023-03-03T20:36:13.720Z,69.50
2023-03-03T20:39:08.451Z,69.30
2023-03-03T20:41:58.735Z,68.50
2023-03-03T20:44:47.045Z,68.40
2023-03-03T20:48:23.944Z,69.00
2023-03-03T20:51:14.002Z,68.50
2023-03-03T20:54:18.313Z,68.00
2023-03-03T20:57:05.955Z,68.60
2023-03-03T20:59:40.738Z,67.90
2023-03-03T21:02:39.798Z,68.80
2023-03-03T21:05:18.717Z,68.70
2023-03-03T21:07:54.428Z,67.80
2023-03-03T21:10:31.215Z,68.60
2023-03-03T21:13:36.970Z,68.00
2023-03-03T21:16:10.459Z,68.70
2023-03-03T21:18:37.512Z,68.60
2023-03-03T21:21:05.167Z,68.60
2023-03-03T21:23:32.002Z,67.80
2023-03-03T21:28:35.461Z,68.10
2023-03-03T21:31:17.371Z,68.40
2023-03-03T21:33:57.786Z,67.40
2023-03-03T21:36:36.207Z,68.00
2023-03-03T21:39:22.370Z,67.90
2023-03-03T21:42:07.430Z,67.20
2023-03-03T21:44:50.162Z,67.90
2023-03-03T21:47:24.035Z,67.40
2023-03-03T21:49:52.833Z,68.10
2023-03-03T21:52:22.471Z,68.20
2023-03-03T21:54:51.954Z,68.10
2023-03-03T21:57:18.980Z,68.10
2023-03-03T21:59:45.887Z,68.40
2023-03-03T22:02:13.354Z,67.60
2023-03-03T22:07:09.545Z,67.50
2023-03-03T22:09:37.464Z,68.30
2023-03-03T22:12:06.035Z,68.30
2023-03-03T22:14:33.201Z,67.70
2023-03-03T22:17:00.165Z,68.40
2023-03-03T22:19:26.944Z,68.40
2023-03-03T22:21:53.711Z,68.40
2023-03-03T22:24:20.454Z,68.60
2023-03-03T22:26:47.301Z,68.50
2023-03-03T22:29:16.730Z,68.40
2023-03-03T22:31:43.461Z,68.80
2023-03-03T22:34:10.441Z,67.80
2023-03-03T22:36:37.191Z,67.60
2023-03-03T22:39:04.070Z,68.30
2023-03-03T22:41:31.844Z,67.60
2023-03-03T22:43:58.626Z,68.20
2023-03-03T22:46:26.167Z,67.50
2023-03-03T22:48:54.189Z,68.20
2023-03-03T22:51:22.160Z,67.60
2023-03-03T22:53:49.044Z,67.70
2023-03-03T22:56:15.785Z,68.30
2023-03-03T22:58:42.524Z,68.40
2023-03-03T23:01:09.245Z,68.50
2023-03-03T23:03:37.223Z,68.50
2023-03-03T23:06:04.463Z,68.50
2023-03-03T23:08:31.213Z,68.60
2023-03-03T23:10:57.999Z,68.60
2023-03-03T23:13:26.956Z,68.60
2023-03-03T23:15:53.793Z,68.70
2023-03-03T23:18:20.571Z,68.70
2023-03-03T23:20:47.286Z,68.60
2023-03-03T23:23:14.008Z,68.60
2023-03-03T23:25:40.790Z,68.60
2023-03-03T23:28:08.017Z,68.00
2023-03-03T23:30:34.946Z,68.70
2023-03-03T23:33:01.712Z,68.80
2023-03-03T23:35:28.497Z,68.20
2023-03-03T23:37:55.260Z,68.50
2023-03-03T23:40:22.407Z,68.90
2023-03-03T23:42:49.805Z,69.10
2023-03-03T23:45:16.869Z,69.10
2023-03-03T23:50:22.338Z,69.00
2023-03-03T23:52:49.116Z,69.40
2023-03-03T23:55:16.121Z,69.60
2023-03-03T23:57:42.881Z,69.70
